Time;durP1;ratioP1;P1;durP2;ratioP2;P2;SDS_P1;SDS_P2;PMS_P1;PMS_P2;Temp;Humidity;BMP_temperature;BMP_pressure;BME280_temperature;BME280_humidity;BME280_pressure;Samples;Min_cycle;Max_cycle;Signal;HPM_P1;HPM_P2
2023/05/31 00:01:03;;;;;;;35.17;14.93;;;;;;;5.52;62.85;100632.47;1720850;81;20997;-62
2023/05/31 00:03:29;;;;;;;48.83;20.40;;;;;;;5.45;62.89;100632.96;1724931;81;21676;-62
2023/05/31 00:05:56;;;;;;;32.00;14.80;;;;;;;5.40;63.01;100639.92;1724094;81;21002;-62
2023/05/31 00:08:22;;;;;;;31.45;14.98;;;;;;;5.39;63.19;100634.33;1725752;81;21005;-61
2023/05/31 00:10:48;;;;;;;34.63;13.85;;;;;;;5.35;63.16;100639.99;1720719;81;20987;-62
2023/05/31 00:13:15;;;;;;;28.23;13.13;;;;;;;5.28;63.19;100638.77;1719652;81;20927;-62
2023/05/31 00:15:41;;;;;;;45.15;17.82;;;;;;;5.22;63.10;100635.81;1721937;81;21521;-62
2023/05/31 00:18:07;;;;;;;24.92;12.10;;;;;;;5.21;63.47;100639.70;1720753;82;21526;-62
2023/05/31 00:20:33;;;;;;;20.68;9.93;;;;;;;5.19;63.63;100644.06;1720823;81;21032;-62
2023/05/31 00:23:00;;;;;;;25.77;12.13;;;;;;;5.14;63.71;100644.95;1722008;81;21056;-62
2023/05/31 00:25:26;;;;;;;22.22;10.88;;;;;;;5.08;63.71;100641.58;1725280;81;21101;-62
2023/05/31 00:27:55;;;;;;;23.40;11.88;;;;;;;5.03;63.65;100640.76;1722375;81;20994;-62
2023/05/31 00:30:20;;;;;;;28.73;13.15;;;;;;;4.99;63.53;100641.23;1720793;81;20938;-62
2023/05/31 00:32:47;;;;;;;30.10;13.45;;;;;;;4.98;63.81;100651.14;1724888;81;21580;-62
2023/05/31 00:35:13;;;;;;;30.95;12.70;;;;;;;5.00;63.78;100649.41;1720423;82;21117;-61
2023/05/31 00:37:39;;;;;;;33.30;13.43;;;;;;;4.97;63.80;100646.85;1723025;81;21141;-62
2023/05/31 00:40:07;;;;;;;20.70;9.73;;;;;;;4.94;63.83;100639.12;1704050;82;20931;-62
2023/05/31 00:42:34;;;;;;;22.35;10.68;;;;;;;4.89;63.88;100644.77;1696617;82;20990;-62
2023/05/31 00:45:01;;;;;;;38.33;20.33;;;;;;;4.82;63.97;100649.59;1726546;81;21002;-62
2023/05/31 00:47:28;;;;;;;48.25;19.40;;;;;;;4.77;64.20;100651.36;1723320;80;21002;-62
2023/05/31 00:49:56;;;;;;;62.38;28.55;;;;;;;4.71;64.11;100642.77;1763373;79;21090;-62
2023/05/31 00:52:23;;;;;;;64.50;32.70;;;;;;;4.66;64.26;100649.71;1759305;79;20939;-62
2023/05/31 00:54:51;;;;;;;76.82;34.70;;;;;;;4.62;64.39;100645.45;1761146;79;21012;-62
2023/05/31 00:57:17;;;;;;;;;;;;;;;4.57;64.37;100638.16;1759392;79;21136;-62
2023/05/31 00:59:44;;;;;;;71.67;34.80;;;;;;;4.48;64.52;100646.84;1759062;80;20927;-62
2023/05/31 01:02:17;;;;;;;70.22;33.60;;;;;;;4.42;64.47;100644.72;1769400;79;21046;-62
2023/05/31 01:04:42;;;;;;;75.20;36.42;;;;;;;4.43;64.66;100650.34;1760256;79;21444;-62
2023/05/31 01:07:09;;;;;;;75.57;33.73;;;;;;;4.42;64.63;100646.02;1757089;79;21093;-62
2023/05/31 01:09:37;;;;;;;71.82;31.77;;;;;;;4.38;64.54;100643.04;1763723;79;21044;-62
2023/05/31 01:12:35;;;;;;;56.02;29.72;;;;;;;4.35;64.56;100640.48;1763551;79;21008;-62
2023/05/31 01:15:26;;;;;;;70.65;30.48;;;;;;;4.36;64.79;100643.48;1762064;79;21082;-62
2023/05/31 01:18:09;;;;;;;64.65;30.88;;;;;;;4.37;64.98;100641.30;1761830;79;21596;-62
2023/05/31 01:20:38;;;;;;;65.55;31.00;;;;;;;4.32;65.01;100648.26;1758191;79;20968;-62
2023/05/31 01:23:28;;;;;;;55.58;29.55;;;;;;;4.26;65.05;100645.28;1769000;79;21025;-62
2023/05/31 01:26:12;;;;;;;62.62;27.45;;;;;;;4.19;65.18;100643.16;1760828;79;21015;-62
2023/05/31 01:28:41;;;;;;;57.23;25.77;;;;;;;4.13;65.29;100647.52;1759743;79;21583;-62
2023/05/31 01:31:11;;;;;;;51.85;22.75;;;;;;;4.07;65.40;100647.11;1761404;79;21090;-62
2023/05/31 01:33:38;;;;;;;50.58;22.13;;;;;;;4.01;65.54;100643.28;1755256;79;21013;-61
2023/05/31 01:36:05;;;;;;;49.93;22.15;;;;;;;3.99;65.64;100655.34;1757928;79;20962;-62
2023/05/31 01:38:31;;;;;;;42.10;20.97;;;;;;;3.96;65.79;100645.03;1757144;79;21489;-62
2023/05/31 01:40:58;;;;;;;36.73;18.67;;;;;;;3.94;65.81;100646.75;1759993;79;21408;-62
2023/05/31 01:43:26;;;;;;;39.23;20.75;;;;;;;3.97;66.05;100657.06;1762892;79;21576;-61
2023/05/31 01:45:55;;;;;;;29.75;15.90;;;;;;;3.97;65.93;100654.48;1756047;80;21052;-62
2023/05/31 01:48:22;;;;;;;23.02;12.85;;;;;;;3.97;65.79;100653.19;1760820;79;21012;-62
2023/05/31 01:50:51;;;;;;;20.77;10.82;;;;;;;3.97;66.02;100651.46;1760350;79;22373;-62
2023/05/31 01:53:17;;;;;;;25.92;12.07;;;;;;;3.98;66.07;100650.61;1763957;79;20990;-62
2023/05/31 01:55:45;;;;;;;20.75;10.80;;;;;;;4.00;66.10;100649.30;1760758;79;21067;-62
2023/05/31 01:58:13;;;;;;;25.20;11.12;;;;;;;4.01;66.08;100648.45;1750843;79;20960;-62
2023/05/31 02:00:41;;;;;;;20.72;11.45;;;;;;;3.99;66.11;100645.86;1766756;79;20993;-62
2023/05/31 02:03:08;;;;;;;18.80;9.48;;;;;;;3.99;66.17;100647.59;1761548;79;21023;-62
2023/05/31 02:05:34;;;;;;;29.30;12.60;;;;;;;3.97;66.34;100646.73;1766482;79;21040;-62
2023/05/31 02:08:00;;;;;;;25.00;12.20;;;;;;;3.96;66.39;100641.16;1763366;79;21015;-62
2023/05/31 02:10:27;;;;;;;24.20;11.35;;;;;;;3.94;66.48;100636.41;1760195;80;20947;-62
2023/05/31 02:12:54;;;;;;;17.05;9.88;;;;;;;3.93;66.50;100635.56;1753130;79;21056;-62
2023/05/31 02:15:20;;;;;;;;;;;;;;;3.95;66.60;100635.53;1770974;79;21018;-62
2023/05/31 02:17:50;;;;;;;15.03;8.48;;;;;;;3.94;66.98;100633.83;1765022;79;20197;-62
2023/05/31 02:20:16;;;;;;;13.35;8.13;;;;;;;3.92;66.86;100628.69;1762878;79;20980;-62
2023/05/31 02:22:44;;;;;;;18.20;9.55;;;;;;;3.96;67.02;100634.69;1757442;79;20988;-62
2023/05/31 02:25:15;;;;;;;15.55;8.70;;;;;;;3.97;67.12;100628.64;1757792;79;21009;-62
2023/05/31 02:27:42;;;;;;;15.88;10.48;;;;;;;3.97;67.19;100635.95;1759345;79;20968;-62
2023/05/31 02:30:10;;;;;;;16.70;10.30;;;;;;;3.96;67.14;100634.69;1757684;79;20995;-62
2023/05/31 02:32:37;;;;;;;18.65;9.10;;;;;;;3.94;66.92;100631.25;1757173;79;21076;-62
2023/05/31 02:35:05;;;;;;;14.60;8.20;;;;;;;3.95;66.99;100640.70;1762460;79;21001;-62
2023/05/31 02:37:32;;;;;;;14.20;8.53;;;;;;;3.94;67.06;100641.58;1768058;79;21014;-62
2023/05/31 02:39:58;;;;;;;13.68;8.05;;;;;;;3.94;67.19;100646.75;1764012;79;21583;-62
2023/05/31 02:42:25;;;;;;;16.67;8.68;;;;;;;3.99;67.17;100646.30;1760472;79;21562;-62
2023/05/31 02:44:51;;;;;;;18.15;8.95;;;;;;;4.03;67.21;100641.52;1734390;79;20961;-62
2023/05/31 02:47:17;;;;;;;12.80;8.50;;;;;;;4.07;67.25;100645.83;1714187;81;21509;-62
2023/05/31 02:49:44;;;;;;;19.70;9.23;;;;;;;4.10;67.40;100632.88;1714963;80;21619;-62
2023/05/31 02:52:10;;;;;;;16.52;8.68;;;;;;;4.16;67.57;100639.73;1720527;81;21390;-62
2023/05/31 02:54:37;;;;;;;20.70;12.07;;;;;;;4.21;67.39;100640.13;1699572;82;21473;-62
2023/05/31 02:57:04;;;;;;;24.75;11.83;;;;;;;4.25;67.37;100637.94;1721879;81;22690;-62
2023/05/31 02:59:30;;;;;;;28.80;14.15;;;;;;;4.31;67.26;100634.45;1714856;81;21013;-62
2023/05/31 03:01:57;;;;;;;27.05;14.03;;;;;;;4.36;67.26;100633.13;1721569;80;20973;-62
2023/05/31 03:04:25;;;;;;;30.85;14.33;;;;;;;4.38;67.17;100630.11;1715123;81;21534;-62
2023/05/31 03:06:52;;;;;;;22.35;12.33;;;;;;;4.37;67.22;100625.79;1720628;81;20934;-62
2023/05/31 03:09:18;;;;;;;22.95;12.85;;;;;;;4.43;67.38;100632.23;1717900;81;21025;-62
2023/05/31 03:11:45;;;;;;;27.65;12.68;;;;;;;4.46;67.44;100632.20;1719639;81;21072;-62
2023/05/31 03:14:12;;;;;;;26.40;13.23;;;;;;;4.51;67.57;100629.16;1718606;81;21104;-62
2023/05/31 03:16:40;;;;;;;24.95;12.50;;;;;;;4.58;67.74;100628.66;1720048;81;20973;-62
2023/05/31 03:19:08;;;;;;;26.30;13.60;;;;;;;4.63;67.81;100623.87;1716011;81;21665;-62
2023/05/31 03:21:40;;;;;;;21.60;12.23;;;;;;;4.73;67.87;100625.08;1722822;81;21007;-62
2023/05/31 03:24:05;;;;;;;26.45;14.10;;;;;;;4.82;67.94;100626.31;1719075;81;21001;-62
2023/05/31 03:26:32;;;;;;;25.08;13.62;;;;;;;4.93;68.06;100619.30;1726226;81;21039;-62
2023/05/31 03:28:58;;;;;;;33.73;13.13;;;;;;;5.06;68.13;100618.28;1724454;81;21049;-62
2023/05/31 03:31:28;;;;;;;29.52;12.25;;;;;;;5.16;68.04;100614.73;1720042;81;21516;-62
2023/05/31 03:33:54;;;;;;;20.10;10.95;;;;;;;5.21;67.97;100617.69;1720525;81;22117;-62
2023/05/31 03:36:22;;;;;;;17.90;9.45;;;;;;;5.24;68.17;100608.62;1714006;81;21529;-62
2023/05/31 03:38:48;;;;;;;16.65;9.53;;;;;;;5.30;68.35;100608.55;1718426;81;21069;-62
2023/05/31 03:41:15;;;;;;;19.60;9.33;;;;;;;5.36;68.35;100605.88;1711884;81;21056;-62
2023/05/31 03:43:41;;;;;;;18.27;9.80;;;;;;;5.45;68.55;100603.17;1719125;81;20954;-62
2023/05/31 03:46:08;;;;;;;22.32;10.23;;;;;;;5.55;68.67;100597.02;1762245;79;21027;-62
2023/05/31 03:48:34;;;;;;;17.45;8.85;;;;;;;5.68;68.99;100596.84;1756209;79;21001;-63
2023/05/31 03:51:00;;;;;;;16.50;8.55;;;;;;;5.83;69.15;100597.95;1753423;79;20932;-62
2023/05/31 03:53:27;;;;;;;23.35;10.70;;;;;;;5.98;69.12;100600.34;1759039;79;21095;-62
2023/05/31 03:55:53;;;;;;;18.90;9.05;;;;;;;6.09;69.11;100596.75;1757341;79;20999;-62
2023/05/31 03:58:20;;;;;;;27.98;9.68;;;;;;;6.17;69.25;100591.01;1764576;79;21067;-62
2023/05/31 04:00:46;;;;;;;13.45;8.40;;;;;;;6.29;69.49;100588.21;1753688;79;21077;-62
2023/05/31 04:03:13;;;;;;;13.60;8.23;;;;;;;6.45;69.62;100583.20;1763164;79;21050;-62
2023/05/31 04:05:40;;;;;;;17.27;8.68;;;;;;;6.62;69.77;100579.02;1758451;79;20953;-62
2023/05/31 04:08:06;;;;;;;18.42;8.73;;;;;;;6.80;69.97;100583.02;1760105;79;21003;-62
2023/05/31 04:10:34;;;;;;;11.43;7.62;;;;;;;6.93;70.17;100571.53;1757834;79;21002;-62
2023/05/31 04:13:00;;;;;;;12.18;7.30;;;;;;;7.11;70.12;100572.94;1761613;78;21026;-62
2023/05/31 04:15:28;;;;;;;19.87;8.08;;;;;;;7.28;70.16;100570.01;1764248;79;21056;-62
2023/05/31 04:17:55;;;;;;;13.03;7.03;;;;;;;7.46;70.37;100570.51;1762967;79;20989;-62
2023/05/31 04:20:23;;;;;;;16.60;7.33;;;;;;;7.64;70.58;100562.30;1763918;78;21528;-62
2023/05/31 04:22:50;;;;;;;11.80;6.30;;;;;;;7.84;70.69;100561.44;1755965;78;21010;-62
2023/05/31 04:25:17;;;;;;;10.70;5.95;;;;;;;8.05;71.00;100565.73;1759851;79;21151;-62
2023/05/31 04:27:43;;;;;;;;;;;;;;;8.30;71.22;100552.53;1757274;79;20993;-62
2023/05/31 04:30:10;;;;;;;34.58;6.70;;;;;;;8.56;71.54;100551.05;1756769;79;20152;-63
2023/05/31 04:32:37;;;;;;;31.15;5.53;;;;;;;8.81;71.41;100551.72;1757824;79;21007;-62
2023/05/31 04:35:05;;;;;;;17.77;4.15;;;;;;;9.06;71.53;100544.94;1749846;79;21066;-62
2023/05/31 04:37:33;;;;;;;10.70;3.52;;;;;;;9.34;71.57;100542.86;1760558;79;21006;-62
2023/05/31 04:40:03;;;;;;;6.25;2.80;;;;;;;9.56;71.69;100540.02;1755067;79;21038;-62
2023/05/31 04:42:35;;;;;;;7.10;2.60;;;;;;;9.79;71.67;100534.09;1744663;80;21046;-62
2023/05/31 04:45:01;;;;;;;6.03;2.58;;;;;;;10.05;71.65;100543.73;1755168;79;21143;-62
2023/05/31 04:47:28;;;;;;;6.03;1.72;;;;;;;10.30;71.40;100537.72;1755038;79;21103;-62
2023/05/31 04:49:59;;;;;;;5.97;2.83;;;;;;;10.55;71.40;100539.52;1756888;79;21509;-62
2023/05/31 04:52:30;;;;;;;4.92;2.12;;;;;;;10.78;71.46;100538.26;1753282;79;20947;-62
2023/05/31 04:54:59;;;;;;;5.50;1.98;;;;;;;11.00;71.24;100533.59;1752329;79;21011;-62
2023/05/31 04:57:26;;;;;;;7.03;2.02;;;;;;;11.16;71.11;100537.35;1753856;79;21583;-61
2023/05/31 04:59:59;;;;;;;8.20;1.80;;;;;;;11.28;70.90;100531.66;1756115;79;21011;-61
2023/05/31 05:02:26;;;;;;;4.15;1.65;;;;;;;11.41;70.85;100534.22;1749757;80;20943;-61
2023/05/31 05:04:53;;;;;;;4.42;2.15;;;;;;;11.58;70.68;100534.04;1751018;79;20903;-61
2023/05/31 05:07:21;;;;;;;9.95;2.25;;;;;;;11.74;70.67;100533.84;1757922;79;21057;-61
2023/05/31 05:09:47;;;;;;;4.92;2.00;;;;;;;11.88;70.36;100536.42;1748596;79;20985;-61
2023/05/31 05:12:13;;;;;;;7.00;2.33;;;;;;;12.07;70.32;100539.54;1752407;80;22288;-61
2023/05/31 05:14:40;;;;;;;3.72;1.92;;;;;;;12.36;70.08;100505.22;1753315;80;21413;-61
2023/05/31 05:17:12;;;;;;;6.72;1.75;;;;;;;12.36;70.08;100505.22;1755067;79;21031;-61
2023/05/31 05:19:38;;;;;;;4.87;1.77;;;;;;;12.67;69.97;100525.25;1760188;79;21001;-62
2023/05/31 05:22:06;;;;;;;4.25;1.50;;;;;;;12.71;69.81;100488.81;1745260;79;20967;-62
2023/05/31 05:24:32;;;;;;;6.75;2.30;;;;;;;13.09;69.74;100513.80;1755673;79;20996;-61
2023/05/31 05:27:02;;;;;;;5.58;1.52;;;;;;;13.35;69.56;100511.78;1745063;79;21038;-61
2023/05/31 05:29:39;;;;;;;4.12;1.75;;;;;;;13.55;68.75;100509.07;1753553;79;21011;-61
2023/05/31 05:32:07;;;;;;;3.92;1.70;;;;;;;13.68;68.73;100511.13;1732999;80;21104;-61
2023/05/31 05:34:34;;;;;;;13.05;2.22;;;;;;;13.83;68.48;100498.58;1755428;78;21043;-61
2023/05/31 05:37:00;;;;;;;9.78;2.20;;;;;;;13.88;67.87;100500.52;1757622;79;21055;-61
2023/05/31 05:39:26;;;;;;;70.90;5.40;;;;;;;13.97;67.87;100505.31;1756271;79;21468;-61
2023/05/31 05:41:52;;;;;;;5.65;2.10;;;;;;;14.00;67.40;100498.63;1762811;79;21089;-61
2023/05/31 05:44:19;;;;;;;4.97;1.77;;;;;;;14.05;67.58;100497.91;1751377;79;20982;-61
2023/05/31 05:46:46;;;;;;;5.77;2.40;;;;;;;14.14;67.45;100504.48;1763110;79;21103;-61
2023/05/31 05:49:13;;;;;;;3.47;1.72;;;;;;;14.18;67.05;100502.58;1765433;79;21035;-61
2023/05/31 05:51:39;;;;;;;8.95;2.10;;;;;;;14.25;67.02;100503.95;1758273;79;21622;-61
2023/05/31 05:54:06;;;;;;;4.90;2.20;;;;;;;14.39;66.82;100498.85;1759193;80;20959;-61
2023/05/31 05:56:32;;;;;;;16.23;2.50;;;;;;;14.52;66.78;100505.22;1765681;79;21060;-61
2023/05/31 05:58:59;;;;;;;10.32;2.30;;;;;;;14.66;66.58;100503.67;1758850;79;21044;-61
2023/05/31 06:01:26;;;;;;;7.47;2.30;;;;;;;14.84;66.02;100493.97;1763764;79;21068;-61
2023/05/31 06:03:55;;;;;;;;;;;;;;;14.95;65.76;100487.20;1763800;79;21024;-60
2023/05/31 06:06:21;;;;;;;5.25;2.22;;;;;;;15.11;65.28;100489.03;1763667;79;20401;-61
2023/05/31 06:08:47;;;;;;;5.13;1.80;;;;;;;15.30;65.53;100479.20;1767653;79;21323;-62
2023/05/31 06:11:16;;;;;;;10.00;1.93;;;;;;;15.43;65.10;100476.28;1771377;79;21002;-61
2023/05/31 06:13:45;;;;;;;8.23;1.57;;;;;;;15.60;64.96;100458.23;1761581;79;22007;-61
2023/05/31 06:16:18;;;;;;;3.12;1.47;;;;;;;15.94;64.48;100471.30;1746458;80;21021;-60
2023/05/31 06:18:44;;;;;;;6.83;1.50;;;;;;;16.09;63.65;100470.39;1762836;79;21593;-61
2023/05/31 06:21:12;;;;;;;4.45;1.60;;;;;;;16.30;63.22;100459.92;1760630;79;21461;-61
2023/05/31 06:23:38;;;;;;;6.25;1.10;;;;;;;16.47;62.94;100465.98;1763907;79;20957;-61
2023/05/31 06:26:05;;;;;;;4.00;1.20;;;;;;;16.67;62.27;100461.66;1761966;79;21042;-61
2023/05/31 06:28:32;;;;;;;3.50;1.10;;;;;;;16.84;61.53;100462.45;1760200;79;20965;-61
2023/05/31 06:31:00;;;;;;;;;;;;;;;17.04;61.33;100456.78;1700909;82;20996;-62
2023/05/31 06:33:28;;;;;;;11.22;1.60;;;;;;;17.19;59.89;100451.01;1761152;79;20150;-62
2023/05/31 06:35:54;;;;;;;4.45;1.10;;;;;;;17.38;60.20;100457.29;1763512;79;21571;-62
2023/05/31 06:38:21;;;;;;;5.37;1.25;;;;;;;17.61;59.25;100459.28;1760042;79;21023;-62
2023/05/31 06:40:47;;;;;;;3.90;1.20;;;;;;;17.86;57.70;100455.08;1761656;79;20984;-62
2023/05/31 06:43:15;;;;;;;11.55;1.57;;;;;;;18.16;59.04;100451.36;1759521;79;21021;-62
2023/05/31 06:45:42;;;;;;;5.58;1.22;;;;;;;18.49;57.93;100441.13;1765092;79;21076;-62
2023/05/31 06:48:13;;;;;;;2.20;0.90;;;;;;;18.85;58.31;100450.14;1748584;79;21664;-62
2023/05/31 06:50:36;;;;;;;10.40;1.90;;;;;;;19.37;57.83;100443.75;1775959;79;21068;-61
2023/05/31 06:53:03;;;;;;;7.53;1.45;;;;;;;19.87;56.80;100436.57;1775969;79;21019;-62
2023/05/31 06:55:34;;;;;;;8.57;1.50;;;;;;;20.42;57.27;100438.66;1777519;79;21139;-62
2023/05/31 06:58:02;;;;;;;5.15;0.98;;;;;;;20.94;53.96;100439.91;1739595;80;21571;-62
2023/05/31 07:00:28;;;;;;;469.60;31.65;;;;;;;21.49;55.19;100424.88;1768520;79;20975;-62
2023/05/31 07:02:56;;;;;;;4.53;1.03;;;;;;;22.38;53.50;100437.89;1778538;79;21041;-62
2023/05/31 07:05:23;;;;;;;8.15;1.07;;;;;;;23.30;54.41;100424.55;1775474;79;21584;-62
2023/05/31 07:07:49;;;;;;;6.17;1.40;;;;;;;24.42;52.83;100427.63;1766408;79;21604;-62
2023/05/31 07:10:16;;;;;;;2.52;0.80;;;;;;;24.42;52.83;100427.63;1773356;79;21035;-63
2023/05/31 07:12:43;;;;;;;16.93;1.57;;;;;;;24.63;51.55;100419.45;1774757;79;21475;-62
2023/05/31 07:15:10;;;;;;;5.03;1.02;;;;;;;25.33;49.01;100419.83;1770430;79;21079;-62
2023/05/31 07:17:37;;;;;;;2.95;1.07;;;;;;;26.02;50.62;100412.94;1774085;79;21021;-62
2023/05/31 07:20:08;;;;;;;9.50;1.55;;;;;;;27.00;49.53;100410.36;1770997;79;21007;-63
2023/05/31 07:22:34;;;;;;;6.75;1.45;;;;;;;27.85;49.17;100407.53;1769929;79;21368;-63
2023/05/31 07:25:01;;;;;;;;;;;;;;;28.71;48.08;100402.03;1774053;79;21050;-63
2023/05/31 07:27:27;;;;;;;5.62;1.40;;;;;;;29.37;43.64;100399.02;1770378;78;20159;-63
2023/05/31 07:29:53;;;;;;;;;;;;;;;29.74;46.29;100395.57;1772677;79;21020;-62
2023/05/31 07:32:20;;;;;;;4.17;1.20;;;;;;;30.49;44.98;100401.44;1784448;78;20512;-63
2023/05/31 07:34:47;;;;;;;7.08;1.52;;;;;;;31.36;43.82;100388.55;1776879;78;21003;-63
2023/05/31 07:37:14;;;;;;;5.08;1.42;;;;;;;31.89;42.23;100393.08;1770364;79;21564;-63
2023/05/31 07:39:40;;;;;;;7.08;1.30;;;;;;;32.38;42.38;100385.13;1775278;79;21093;-63
2023/05/31 07:42:07;;;;;;;8.03;1.40;;;;;;;32.89;41.75;100379.39;1774136;79;21552;-63
2023/05/31 07:44:34;;;;;;;6.10;1.10;;;;;;;33.36;39.95;100374.98;1776536;79;20962;-63
2023/05/31 07:47:00;;;;;;;3.92;1.12;;;;;;;33.59;40.02;100372.73;1749973;80;21056;-63
2023/05/31 07:49:26;;;;;;;;;;;;;;;33.84;37.80;100373.47;1751373;80;20930;-63
2023/05/31 07:51:53;;;;;;;6.83;1.30;;;;;;;33.81;35.97;100365.77;1744323;80;20227;-63
2023/05/31 07:54:19;;;;;;;10.15;1.40;;;;;;;33.63;36.50;100364.49;1749244;80;21036;-63
2023/05/31 07:56:45;;;;;;;3.77;1.35;;;;;;;33.84;34.90;100359.40;1748408;80;20979;-63
2023/05/31 07:59:11;;;;;;;;;;;;;;;34.24;35.50;100357.18;1752328;80;21004;-63
2023/05/31 08:01:40;;;;;;;3.47;1.02;;;;;;;34.73;33.31;100355.77;1742613;80;20150;-63
2023/05/31 08:04:08;;;;;;;4.25;1.52;;;;;;;34.96;33.41;100361.52;1744380;80;21065;-63
2023/05/31 08:06:36;;;;;;;3.95;1.10;;;;;;;34.84;32.84;100357.81;1749594;80;21552;-63
2023/05/31 08:09:07;;;;;;;10.40;1.20;;;;;;;35.06;32.13;100356.17;1747783;80;21005;-63
2023/05/31 08:11:37;;;;;;;4.92;1.10;;;;;;;35.10;31.12;100350.09;1742321;80;21549;-63
2023/05/31 08:14:04;;;;;;;6.50;2.12;;;;;;;35.38;31.24;100353.77;1743964;80;21057;-63
2023/05/31 08:16:32;;;;;;;8.10;1.22;;;;;;;36.51;30.23;100343.73;1749827;79;21045;-63
2023/05/31 08:18:59;;;;;;;5.35;1.72;;;;;;;37.60;29.74;100341.81;1747039;80;21004;-63
2023/05/31 08:21:25;;;;;;;47.58;4.33;;;;;;;37.87;28.26;100338.64;1748436;80;21056;-63
2023/05/31 08:23:51;;;;;;;13.32;1.72;;;;;;;37.58;26.72;100335.77;1746056;80;20989;-63
2023/05/31 08:26:18;;;;;;;9.60;1.42;;;;;;;37.29;27.01;100339.38;1744096;80;21599;-61
2023/05/31 08:28:44;;;;;;;21.40;1.90;;;;;;;37.65;26.70;100334.84;1748295;80;21607;-61
2023/05/31 08:31:10;;;;;;;12.47;2.35;;;;;;;38.51;25.67;100330.50;1745469;80;20989;-61
2023/05/31 08:33:36;;;;;;;21.87;3.05;;;;;;;38.86;25.53;100332.29;1742982;80;20989;-61
2023/05/31 08:36:04;;;;;;;17.00;2.12;;;;;;;39.31;24.12;100329.59;1749174;80;21061;-61
2023/05/31 08:38:31;;;;;;;9.23;1.35;;;;;;;39.95;24.45;100325.69;1750864;80;21096;-61
2023/05/31 08:41:01;;;;;;;34.35;3.45;;;;;;;40.39;23.90;100325.20;1750575;80;20989;-61
2023/05/31 08:43:30;;;;;;;8.63;1.30;;;;;;;40.82;23.48;100317.22;1772510;78;89492;-63
2023/05/31 08:45:57;;;;;;;9.88;1.82;;;;;;;40.78;22.18;100313.33;1780630;78;21489;-63
2023/05/31 08:48:42;;;;;;;27.00;2.37;;;;;;;40.75;22.51;100320.69;1754446;79;21081;-63
2023/05/31 08:51:09;;;;;;;25.97;2.95;;;;;;;41.24;21.76;100320.65;1756710;79;22235;-63
2023/05/31 08:53:38;;;;;;;9.78;2.37;;;;;;;41.32;21.34;100309.21;1756513;81;20923;-63
2023/05/31 08:56:06;;;;;;;6.58;1.25;;;;;;;41.15;20.68;100312.91;1759072;79;21541;-63
2023/05/31 08:58:35;;;;;;;9.73;1.60;;;;;;;41.03;20.50;100303.98;1756709;80;21029;-63
2023/05/31 09:01:06;;;;;;;2.70;1.22;;;;;;;40.65;19.62;100303.08;1725294;81;21426;-63
2023/05/31 09:03:33;;;;;;;9.08;1.55;;;;;;;40.42;19.73;100289.67;1755134;81;21518;-63
2023/05/31 09:05:59;;;;;;;22.07;3.98;;;;;;;40.52;19.67;100297.16;1755061;80;21449;-63
2023/05/31 09:08:26;;;;;;;12.37;2.42;;;;;;;41.01;19.70;100291.12;1754561;79;20987;-63
2023/05/31 09:10:52;;;;;;;11.75;1.37;;;;;;;41.86;19.23;100285.73;1757432;80;20947;-63
2023/05/31 09:13:19;;;;;;;4.40;1.37;;;;;;;41.68;18.31;100295.77;1759390;80;21105;-63
2023/05/31 09:15:48;;;;;;;2.52;1.37;;;;;;;40.87;18.56;100281.13;1757969;80;21073;-63
2023/05/31 09:18:18;;;;;;;3.95;1.40;;;;;;;40.92;18.62;100288.55;1754582;81;21017;-63
2023/05/31 09:20:47;;;;;;;2.17;1.12;;;;;;;41.67;18.21;100292.20;1752613;79;20983;-63
2023/05/31 09:23:14;;;;;;;5.58;1.20;;;;;;;42.48;18.24;100283.56;1756688;79;20986;-64
2023/05/31 09:25:49;;;;;;;7.03;1.92;;;;;;;43.05;17.57;100281.77;1762284;80;21077;-63
2023/05/31 09:28:18;;;;;;;8.88;1.52;;;;;;;43.50;17.33;100279.25;1760837;79;20999;-61
2023/05/31 09:30:44;;;;;;;6.90;2.05;;;;;;;43.18;17.13;100279.58;1761196;80;21519;-61
2023/05/31 09:33:12;;;;;;;3.33;1.37;;;;;;;43.02;16.64;100275.97;1757727;79;21040;-61
2023/05/31 09:35:45;;;;;;;4.85;1.20;;;;;;;42.91;16.62;100270.50;1752876;80;21008;-61
2023/05/31 09:38:11;;;;;;;22.27;2.37;;;;;;;42.84;16.36;100275.42;1756297;80;21060;-61
2023/05/31 09:40:42;;;;;;;14.30;1.80;;;;;;;42.60;16.02;100279.22;1756512;79;21522;-61
2023/05/31 09:43:06;;;;;;;22.25;2.10;;;;;;;42.90;16.25;100274.32;1752595;79;20990;-61
2023/05/31 09:45:34;;;;;;;15.83;2.15;;;;;;;43.15;15.93;100272.71;1788662;78;21021;-61
2023/05/31 09:48:02;;;;;;;8.58;2.10;;;;;;;43.06;15.74;100271.59;1792363;77;21013;-61
2023/05/31 09:50:29;;;;;;;8.20;1.70;;;;;;;43.22;15.71;100260.91;1798642;77;21052;-61
2023/05/31 09:53:01;;;;;;;8.08;1.95;;;;;;;43.74;15.55;100266.58;1803715;77;20950;-60
2023/05/31 09:55:28;;;;;;;79.07;5.20;;;;;;;43.65;15.33;100264.14;1800633;78;21670;-60
2023/05/31 09:57:57;;;;;;;16.67;2.27;;;;;;;43.95;15.12;100255.55;1785650;77;21013;-60
2023/05/31 10:00:30;;;;;;;29.37;4.80;;;;;;;43.38;14.15;100254.00;1758789;79;21034;-62
2023/05/31 10:02:58;;;;;;;16.27;2.00;;;;;;;43.37;15.01;100253.73;1759493;79;20986;-62
2023/05/31 10:05:25;;;;;;;3.80;1.12;;;;;;;43.60;14.54;100249.03;1759295;80;20967;-60
2023/05/31 10:07:53;;;;;;;12.60;1.40;;;;;;;43.72;14.72;100249.56;1770930;79;21107;-60
2023/05/31 10:10:20;;;;;;;6.15;1.10;;;;;;;44.25;14.21;100235.30;1767718;79;20955;-60
2023/05/31 10:12:52;;;;;;;16.17;1.60;;;;;;;44.38;14.24;100242.14;1761625;79;20975;-61
2023/05/31 10:15:27;;;;;;;4.83;1.37;;;;;;;44.91;14.15;100227.18;1761461;79;21591;-62
2023/05/31 10:18:01;;;;;;;6.22;1.00;;;;;;;45.28;14.27;100235.41;1767149;79;22357;-62
2023/05/31 10:20:31;;;;;;;3.45;1.20;;;;;;;45.24;13.65;100235.17;1759262;79;20999;-68
2023/05/31 10:23:00;;;;;;;26.68;1.98;;;;;;;45.11;13.67;100220.09;1757450;79;21149;-60
2023/05/31 10:25:37;;;;;;;3.58;1.30;;;;;;;45.35;13.30;100220.73;1742377;79;22089;-61
2023/05/31 10:28:09;;;;;;;4.53;1.25;;;;;;;45.60;13.67;100224.32;1741319;81;21544;-60
2023/05/31 10:30:39;;;;;;;15.28;2.20;;;;;;;45.94;12.67;100218.14;1762157;79;20994;-60
2023/05/31 10:33:07;;;;;;;17.55;2.05;;;;;;;46.06;12.97;100220.45;1771552;79;21006;-60
2023/05/31 10:35:39;;;;;;;9.08;1.62;;;;;;;45.94;12.94;100212.63;1763418;79;21003;-59
2023/05/31 10:38:11;;;;;;;9.85;2.00;;;;;;;45.76;12.43;100210.61;1758132;80;21060;-59
2023/05/31 10:40:42;;;;;;;17.00;2.20;;;;;;;45.24;12.58;100206.80;1759474;80;20994;-59
2023/05/31 10:43:28;;;;;;;11.30;1.67;;;;;;;45.52;12.70;100208.70;1759616;80;21009;-59
2023/05/31 10:46:01;;;;;;;41.00;3.20;;;;;;;45.20;12.21;100198.83;1758063;80;20997;-60
2023/05/31 10:48:41;;;;;;;13.88;2.80;;;;;;;44.86;12.38;100203.80;1802726;78;21453;-61
2023/05/31 10:51:09;;;;;;;8.53;1.45;;;;;;;45.23;12.38;100192.73;1794514;78;20969;-61
2023/05/31 10:53:37;;;;;;;8.63;1.32;;;;;;;45.55;12.14;100194.33;1799359;78;21081;-62
2023/05/31 10:56:07;;;;;;;11.55;1.55;;;;;;;45.88;12.44;100188.95;1799906;77;20979;-61
2023/05/31 10:58:42;;;;;;;5.83;1.10;;;;;;;46.06;11.71;100190.67;1800375;78;21009;-61
2023/05/31 11:01:14;;;;;;;11.18;1.40;;;;;;;45.15;11.84;100179.58;1798354;78;21060;-61
2023/05/31 11:03:47;;;;;;;5.00;1.30;;;;;;;44.39;11.74;100174.96;1794952;78;21095;-61
2023/05/31 11:06:19;;;;;;;5.67;1.05;;;;;;;44.08;12.14;100175.13;1798753;78;21113;-61
2023/05/31 11:09:08;;;;;;;73.33;8.25;;;;;;;44.36;11.92;100167.28;1791481;77;20998;-61
2023/05/31 11:11:39;;;;;;;16.02;1.82;;;;;;;43.79;11.78;100163.44;1799503;77;21032;-60
2023/05/31 11:14:08;;;;;;;22.60;2.25;;;;;;;43.06;11.82;100167.20;1791937;77;22461;-61
2023/05/31 11:16:47;;;;;;;7.08;1.67;;;;;;;42.56;11.81;100167.48;1794547;78;20954;-61
2023/05/31 11:19:22;;;;;;;21.35;2.98;;;;;;;42.05;11.94;100164.08;1801281;78;22814;-61
2023/05/31 11:21:51;;;;;;;11.22;1.80;;;;;;;41.61;12.00;100154.03;1796380;78;21020;-60
2023/05/31 11:24:38;;;;;;;38.45;4.55;;;;;;;41.18;12.15;100150.50;1794401;78;20958;-61
2023/05/31 11:27:07;;;;;;;25.90;4.45;;;;;;;40.99;12.31;100138.56;1799543;78;21085;-61
2023/05/31 11:29:56;;;;;;;5.37;1.15;;;;;;;40.83;12.52;100150.48;1803166;78;20963;-60